Time;durP1;ratioP1;P1;durP2;ratioP2;P2;SDS_P1;SDS_P2;PMS_P1;PMS_P2;Temp;Humidity;BMP_temperature;BMP_pressure;BME280_temperature;BME280_humidity;BME280_pressure;Samples;Min_cycle;Max_cycle;Signal;HPM_P1;HPM_P2
2021/01/09 05:46:59;;;;;;;19.33;11.15;;;;;;;;;;6236283;22;883548;-80
2021/01/09 05:49:28;;;;;;;20.52;11.57;;;;;;;;;;6308442;22;20008;-80
2021/01/09 05:51:56;;;;;;;18.42;9.95;;;;;;;;;;6308461;22;20000;-81
2021/01/09 05:54:33;;;;;;;19.17;10.50;;;;;;;;;;6307741;22;20496;-80
2021/01/09 05:56:59;;;;;;;20.95;10.45;;;;;;;;;;6284256;22;20026;-80
2021/01/09 05:59:28;;;;;;;19.40;10.18;;;;;;;;;;6277404;22;20019;-81
2021/01/09 06:01:58;;;;;;;16.08;9.85;;;;;;;;;;6249005;22;20090;-81
2021/01/09 06:04:30;;;;;;;18.48;9.85;;;;;;;;;;6274939;22;20000;-81
2021/01/09 06:07:02;;;;;;;18.83;10.55;;;;;;;;;;6248346;22;20004;-81
2021/01/09 06:09:33;;;;;;;21.10;10.68;;;;;;;;;;6248549;22;20003;-81
2021/01/09 06:12:01;;;;;;;17.17;9.75;;;;;;;;;;6248638;22;20007;-81
2021/01/09 06:14:27;;;;;;;18.20;9.15;;;;;;;;;;6247803;22;20004;-83
2021/01/09 06:16:55;;;;;;;18.35;9.98;;;;;;;;;;6248076;22;20016;-83
2021/01/09 06:19:21;;;;;;;17.42;9.48;;;;;;;;;;6275827;22;20002;-83
2021/01/09 06:21:47;;;;;;;14.82;8.20;;;;;;;;;;6248277;22;20008;-83
2021/01/09 06:24:13;;;;;;;17.63;9.70;;;;;;;;;;6275395;22;20493;-83
2021/01/09 06:26:40;;;;;;;23.05;10.55;;;;;;;;;;6275397;22;20121;-83
2021/01/09 06:29:19;;;;;;;18.58;9.95;;;;;;;;;;6248256;22;20000;-82
2021/01/09 06:31:50;;;;;;;18.95;9.63;;;;;;;;;;6275392;22;20026;-83
2021/01/09 06:34:18;;;;;;;18.48;9.18;;;;;;;;;;6247617;22;19999;-83
2021/01/09 06:36:46;;;;;;;23.92;10.95;;;;;;;;;;6275829;22;20010;-83
2021/01/09 06:39:12;;;;;;;17.27;9.45;;;;;;;;;;6275098;22;20010;-83
2021/01/09 06:41:38;;;;;;;14.98;8.50;;;;;;;;;;6248564;22;20008;-83
2021/01/09 06:44:07;;;;;;;21.88;10.07;;;;;;;;;;6274811;22;20026;-83
2021/01/09 06:46:34;;;;;;;19.10;10.20;;;;;;;;;;6248075;22;20448;-83
2021/01/09 06:49:00;;;;;;;19.58;9.60;;;;;;;;;;6275260;22;20044;-83
2021/01/09 06:51:35;;;;;;;19.90;10.52;;;;;;;;;;6274979;22;20027;-83
2021/01/09 06:54:16;;;;;;;18.23;8.73;;;;;;;;;;6274976;22;20395;-83
2021/01/09 06:56:43;;;;;;;15.48;9.32;;;;;;;;;;6275103;22;20004;-83
2021/01/09 06:59:09;;;;;;;17.02;8.63;;;;;;;;;;6275314;22;20010;-83
2021/01/09 07:01:38;;;;;;;15.70;9.23;;;;;;;;;;6275080;22;20003;-83
2021/01/09 07:04:04;;;;;;;15.98;8.35;;;;;;;;;;6274421;22;20502;-83
2021/01/09 07:07:00;;;;;;;15.32;8.02;;;;;;;;;;6277705;22;19992;-82
2021/01/09 07:09:28;;;;;;;18.33;9.65;;;;;;;;;;6251787;22;20007;-83
2021/01/09 07:11:55;;;;;;;19.15;9.90;;;;;;;;;;6249217;22;20438;-83
2021/01/09 07:14:21;;;;;;;17.73;9.80;;;;;;;;;;6278404;22;20074;-82
2021/01/09 07:16:47;;;;;;;19.23;10.38;;;;;;;;;;6277479;22;20004;-83
2021/01/09 07:19:14;;;;;;;15.85;9.43;;;;;;;;;;6278031;22;20092;-83
2021/01/09 07:21:40;;;;;;;18.17;9.93;;;;;;;;;;6277480;22;20061;-82
2021/01/09 07:24:08;;;;;;;16.95;9.18;;;;;;;;;;6278373;22;20120;-83
2021/01/09 07:26:35;;;;;;;15.48;8.27;;;;;;;;;;6278003;22;20357;-82
2021/01/09 07:29:03;;;;;;;15.93;8.57;;;;;;;;;;6277725;22;20004;-83
2021/01/09 07:31:31;;;;;;;19.98;8.98;;;;;;;;;;6250792;22;20014;-82
2021/01/09 07:33:58;;;;;;;15.45;9.52;;;;;;;;;;6276721;22;20004;-82
2021/01/09 07:39:08;;;;;;;15.95;9.23;;;;;;;;;;5104583;27;20343;-83
2021/01/09 07:41:35;;;;;;;20.60;9.68;;;;;;;;;;5092884;28;20031;-84
2021/01/09 07:44:11;;;;;;;18.02;10.23;;;;;;;;;;5093779;28;20082;-84
2021/01/09 07:46:37;;;;;;;23.00;11.73;;;;;;;;;;5098556;28;20021;-83
2021/01/09 07:49:04;;;;;;;19.05;11.38;;;;;;;;;;5100212;28;20024;-83
2021/01/09 07:51:50;;;;;;;20.73;11.25;;;;;;;;;;5098524;28;20532;-83
2021/01/09 07:54:35;;;;;;;18.48;11.27;;;;;;;;;;5098358;28;20036;-83
2021/01/09 07:57:01;;;;;;;21.08;12.35;;;;;;;;;;5097162;28;20028;-84
2021/01/09 07:59:27;;;;;;;23.02;12.52;;;;;;;;;;5102318;28;20017;-83
2021/01/09 08:01:53;;;;;;;21.38;10.32;;;;;;;;;;5101590;28;20039;-84
2021/01/09 08:04:19;;;;;;;22.35;11.85;;;;;;;;;;5097843;28;20028;-83
2021/01/09 08:06:45;;;;;;;23.38;12.52;;;;;;;;;;5102094;28;20586;-83
2021/01/09 08:09:11;;;;;;;23.77;12.60;;;;;;;;;;5099867;28;20030;-83
2021/01/09 08:11:41;;;;;;;21.88;12.52;;;;;;;;;;5097041;28;20024;-83
2021/01/09 08:14:07;;;;;;;27.48;14.40;;;;;;;;;;5098228;28;20550;-84
2021/01/09 08:16:33;;;;;;;29.38;15.50;;;;;;;;;;5086070;28;20057;-84
2021/01/09 08:19:14;;;;;;;23.58;13.60;;;;;;;;;;5094279;28;20055;-84
2021/01/09 08:21:40;;;;;;;26.70;14.38;;;;;;;;;;5086913;28;20036;-84
2021/01/09 08:24:09;;;;;;;26.90;15.15;;;;;;;;;;5097055;28;20165;-84
2021/01/09 08:26:35;;;;;;;25.70;13.23;;;;;;;;;;5104007;28;20194;-83
2021/01/09 08:29:01;;;;;;;24.23;13.32;;;;;;;;;;5097792;28;20031;-84
2021/01/09 08:31:28;;;;;;;25.45;14.25;;;;;;;;;;5098827;28;20430;-83
2021/01/09 08:33:53;;;;;;;23.15;14.00;;;;;;;;;;5094452;28;20032;-83
2021/01/09 08:36:23;;;;;;;24.00;13.35;;;;;;;;;;5103154;28;20074;-83
2021/01/09 08:38:50;;;;;;;19.27;11.18;;;;;;;;;;5101364;28;20489;-83
2021/01/09 08:41:16;;;;;;;15.35;8.98;;;;;;;;;;5097191;28;20091;-84
2021/01/09 08:43:42;;;;;;;17.05;9.38;;;;;;;;;;5100707;28;20176;-84
2021/01/09 08:46:12;;;;;;;15.32;9.52;;;;;;;;;;5097964;28;20082;-83
2021/01/09 08:48:38;;;;;;;19.87;9.33;;;;;;;;;;5088873;28;20107;-84
2021/01/09 08:51:08;;;;;;;16.02;8.95;;;;;;;;;;5087350;28;20294;-84
2021/01/09 08:53:53;;;;;;;14.45;8.35;;;;;;;;;;5079648;28;20032;-84
2021/01/09 08:56:19;;;;;;;14.68;8.68;;;;;;;;;;5084763;28;20421;-83
2021/01/09 08:58:46;;;;;;;13.75;8.00;;;;;;;;;;5090381;28;20025;-84
2021/01/09 09:01:13;;;;;;;13.43;7.57;;;;;;;;;;5083289;28;20465;-83
2021/01/09 09:03:48;;;;;;;14.68;8.65;;;;;;;;;;5074495;28;20059;-84
2021/01/09 09:06:15;;;;;;;13.80;8.25;;;;;;;;;;5086870;28;20028;-83
2021/01/09 09:08:42;;;;;;;13.18;7.80;;;;;;;;;;5094387;28;20078;-84
2021/01/09 09:11:08;;;;;;;15.63;7.47;;;;;;;;;;5069102;28;20500;-83
2021/01/09 09:13:35;;;;;;;14.55;7.50;;;;;;;;;;5068488;28;20511;-83
2021/01/09 09:16:21;;;;;;;14.38;7.28;;;;;;;;;;5089835;28;20036;-85
2021/01/09 09:18:47;;;;;;;13.90;7.75;;;;;;;;;;5091669;28;20040;-83
2021/01/09 09:21:13;;;;;;;14.30;7.30;;;;;;;;;;5086675;28;20028;-83
2021/01/09 09:23:39;;;;;;;13.80;7.32;;;;;;;;;;5084359;28;20091;-83
2021/01/09 09:26:12;;;;;;;14.15;7.82;;;;;;;;;;5084531;28;20028;-83
2021/01/09 09:28:44;;;;;;;13.60;7.95;;;;;;;;;;5087474;28;20030;-84
2021/01/09 09:31:17;;;;;;;13.50;7.65;;;;;;;;;;5081656;28;20027;-83
2021/01/09 09:33:54;;;;;;;14.80;8.23;;;;;;;;;;5096552;28;20127;-84
2021/01/09 09:36:20;;;;;;;13.95;7.57;;;;;;;;;;5087052;28;20025;-83
2021/01/09 09:38:46;;;;;;;13.10;7.18;;;;;;;;;;5086069;28;20499;-83
2021/01/09 09:41:12;;;;;;;12.63;7.25;;;;;;;;;;5082917;28;20021;-83
2021/01/09 09:43:38;;;;;;;14.98;8.63;;;;;;;;;;5086863;28;20094;-83
2021/01/09 09:46:05;;;;;;;13.77;8.02;;;;;;;;;;5086029;28;20080;-83
2021/01/09 09:48:31;;;;;;;12.93;7.38;;;;;;;;;;5087666;28;20074;-83
2021/01/09 09:51:07;;;;;;;14.85;8.00;;;;;;;;;;5086651;28;20425;-83
2021/01/09 09:53:35;;;;;;;12.60;7.95;;;;;;;;;;5081347;28;20051;-82
2021/01/09 09:56:14;;;;;;;13.38;9.15;;;;;;;;;;5075597;28;20384;-83
2021/01/09 09:58:40;;;;;;;13.60;7.07;;;;;;;;;;5087641;28;20028;-82
2021/01/09 10:01:19;;;;;;;13.63;7.45;;;;;;;;;;5085781;28;20036;-83
2021/01/09 10:03:45;;;;;;;13.40;7.63;;;;;;;;;;5072455;28;20115;-84
2021/01/09 10:06:11;;;;;;;14.07;8.82;;;;;;;;;;5086252;28;20073;-84
2021/01/09 10:08:37;;;;;;;11.35;6.80;;;;;;;;;;5087284;28;20028;-84
2021/01/09 10:11:04;;;;;;;13.63;7.65;;;;;;;;;;5083034;28;20028;-84
2021/01/09 10:13:30;;;;;;;14.07;8.27;;;;;;;;;;5085378;28;20067;-84
2021/01/09 10:15:56;;;;;;;16.00;8.23;;;;;;;;;;5089770;28;20032;-83
2021/01/09 10:18:23;;;;;;;24.88;11.50;;;;;;;;;;5092664;28;20480;-83
2021/01/09 10:20:49;;;;;;;18.38;9.45;;;;;;;;;;5085263;28;20012;-83
2021/01/09 10:23:15;;;;;;;11.82;7.50;;;;;;;;;;5091576;28;20055;-84
2021/01/09 10:25:41;;;;;;;22.52;12.40;;;;;;;;;;5095419;28;20031;-85
2021/01/09 10:28:07;;;;;;;14.10;8.05;;;;;;;;;;5084229;28;20021;-85
2021/01/09 10:30:33;;;;;;;12.07;7.60;;;;;;;;;;5092594;28;20058;-85
2021/01/09 10:32:59;;;;;;;11.35;6.40;;;;;;;;;;5079998;28;20089;-83
2021/01/09 10:35:25;;;;;;;9.95;6.10;;;;;;;;;;5078864;28;20770;-84
2021/01/09 10:37:51;;;;;;;8.98;6.00;;;;;;;;;;5087144;28;20115;-83
2021/01/09 10:40:17;;;;;;;11.45;6.88;;;;;;;;;;5086571;28;20020;-83
2021/01/09 10:42:44;;;;;;;15.93;8.23;;;;;;;;;;5087891;28;20099;-83
2021/01/09 10:45:12;;;;;;;17.80;10.27;;;;;;;;;;5086824;28;20020;-83
2021/01/09 10:47:38;;;;;;;18.20;10.02;;;;;;;;;;5088355;28;20028;-85
2021/01/09 10:50:04;;;;;;;19.05;10.63;;;;;;;;;;5085647;28;20484;-85
2021/01/09 10:52:37;;;;;;;13.35;8.68;;;;;;;;;;5086671;28;20511;-84
2021/01/09 10:55:04;;;;;;;13.15;8.23;;;;;;;;;;5084555;28;20024;-84
2021/01/09 10:57:29;;;;;;;13.13;8.45;;;;;;;;;;5073749;28;20024;-84
2021/01/09 10:59:55;;;;;;;15.50;9.43;;;;;;;;;;5085563;28;20032;-83
2021/01/09 11:02:21;;;;;;;15.40;9.25;;;;;;;;;;5085065;28;20032;-83
2021/01/09 11:04:47;;;;;;;17.67;9.40;;;;;;;;;;5081730;28;20039;-83
2021/01/09 11:07:13;;;;;;;16.85;10.77;;;;;;;;;;5083721;28;20028;-83
2021/01/09 11:09:39;;;;;;;22.13;12.88;;;;;;;;;;5086616;28;20032;-83
2021/01/09 11:12:05;;;;;;;26.05;14.20;;;;;;;;;;5084443;28;20093;-83
2021/01/09 11:14:32;;;;;;;24.80;14.68;;;;;;;;;;5084731;28;20017;-83
2021/01/09 11:17:02;;;;;;;25.42;14.38;;;;;;;;;;5089505;28;20028;-83
2021/01/09 11:19:28;;;;;;;21.02;11.77;;;;;;;;;;5084791;28;20039;-84
2021/01/09 11:22:00;;;;;;;42.47;24.75;;;;;;;;;;5078055;28;20027;-84
2021/01/09 11:24:27;;;;;;;27.40;15.70;;;;;;;;;;5079422;28;20021;-82
2021/01/09 11:26:54;;;;;;;22.30;12.88;;;;;;;;;;5074093;28;20062;-83
2021/01/09 11:29:21;;;;;;;23.30;12.65;;;;;;;;;;5078345;28;20025;-82
2021/01/09 11:31:46;;;;;;;16.08;9.93;;;;;;;;;;5086671;28;20031;-83
2021/01/09 11:34:12;;;;;;;16.58;9.63;;;;;;;;;;5080882;28;20384;-83
2021/01/09 11:36:38;;;;;;;17.42;9.85;;;;;;;;;;5088191;28;20038;-83
2021/01/09 11:39:04;;;;;;;14.82;8.20;;;;;;;;;;5085747;28;20100;-81
2021/01/09 11:41:30;;;;;;;16.77;9.50;;;;;;;;;;5088344;28;20084;-81
2021/01/09 11:46:14;;;;;;;16.52;9.30;;;;;;;;;;5082114;27;20407;-81
2021/01/09 11:48:40;;;;;;;20.60;10.05;;;;;;;;;;5053298;28;20032;-82
2021/01/09 11:51:07;;;;;;;14.23;7.97;;;;;;;;;;5065492;28;20032;-83
2021/01/09 11:53:33;;;;;;;16.05;8.68;;;;;;;;;;5069828;28;20123;-83
2021/01/09 11:55:59;;;;;;;18.40;10.32;;;;;;;;;;5069245;28;20516;-83
2021/01/09 11:58:25;;;;;;;16.85;9.38;;;;;;;;;;5073420;28;20028;-82
2021/01/09 12:00:51;;;;;;;18.67;10.25;;;;;;;;;;5081422;22;20701;-80
2021/01/09 12:03:17;;;;;;;18.08;9.90;;;;;;;;;;5052432;28;20044;-80
2021/01/09 12:05:43;;;;;;;15.82;9.38;;;;;;;;;;5051338;28;20104;-80
2021/01/09 12:08:09;;;;;;;13.95;8.13;;;;;;;;;;5054108;28;20021;-79
2021/01/09 12:10:35;;;;;;;16.27;9.85;;;;;;;;;;5049543;28;20029;-79
2021/01/09 12:13:06;;;;;;;15.02;8.68;;;;;;;;;;5052672;28;20040;-79
2021/01/09 12:15:32;;;;;;;16.45;8.30;;;;;;;;;;5050258;28;20021;-79
2021/01/09 12:17:58;;;;;;;16.23;7.30;;;;;;;;;;5027950;28;20030;-79
2021/01/09 12:20:24;;;;;;;12.77;7.80;;;;;;;;;;5050693;28;20037;-79
2021/01/09 12:22:50;;;;;;;12.65;8.02;;;;;;;;;;5032457;28;20120;-79
2021/01/09 12:25:16;;;;;;;13.95;7.88;;;;;;;;;;5031411;28;20041;-79
2021/01/09 12:27:42;;;;;;;13.50;7.03;;;;;;;;;;5050991;28;20045;-79
2021/01/09 12:30:08;;;;;;;12.27;7.95;;;;;;;;;;5032337;28;20084;-79
2021/01/09 12:32:34;;;;;;;13.32;7.82;;;;;;;;;;5049971;28;20017;-80
2021/01/09 12:35:03;;;;;;;12.50;7.43;;;;;;;;;;5031320;28;20116;-81
2021/01/09 12:37:29;;;;;;;11.23;6.90;;;;;;;;;;5049608;28;20021;-81
2021/01/09 12:39:55;;;;;;;10.02;6.05;;;;;;;;;;5031175;28;20374;-81
2021/01/09 12:42:24;;;;;;;12.20;7.55;;;;;;;;;;5049093;28;20571;-81
2021/01/09 12:44:50;;;;;;;10.23;6.75;;;;;;;;;;5049552;28;20017;-81
2021/01/09 12:47:16;;;;;;;11.25;5.72;;;;;;;;;;5032821;28;20044;-82
2021/01/09 12:49:42;;;;;;;11.63;6.00;;;;;;;;;;5047588;28;20385;-81
2021/01/09 12:52:08;;;;;;;10.20;6.07;;;;;;;;;;5030841;28;20025;-81
2021/01/09 12:54:34;;;;;;;14.90;8.10;;;;;;;;;;5029156;28;20435;-80
2021/01/09 12:57:00;;;;;;;11.88;6.82;;;;;;;;;;5040347;28;20021;-81
2021/01/09 12:59:26;;;;;;;9.85;6.10;;;;;;;;;;5014705;28;20084;-81
2021/01/09 13:01:54;;;;;;;12.68;7.68;;;;;;;;;;5035430;28;20037;-81
2021/01/09 13:04:21;;;;;;;13.48;7.90;;;;;;;;;;5036524;28;20029;-81
2021/01/09 13:06:48;;;;;;;15.77;8.43;;;;;;;;;;5033692;28;20029;-80
2021/01/09 13:09:17;;;;;;;13.18;7.53;;;;;;;;;;5036420;28;20040;-81
2021/01/09 13:11:42;;;;;;;14.75;8.07;;;;;;;;;;5035351;28;20021;-81
2021/01/09 13:14:09;;;;;;;14.85;8.55;;;;;;;;;;5036018;28;20095;-82
2021/01/09 13:16:36;;;;;;;33.55;17.95;;;;;;;;;;5020617;28;20076;-81
2021/01/09 13:19:02;;;;;;;14.73;8.98;;;;;;;;;;5019611;28;20049;-81
2021/01/09 13:21:28;;;;;;;15.98;9.60;;;;;;;;;;5018325;28;20060;-82
2021/01/09 13:23:54;;;;;;;17.45;9.23;;;;;;;;;;5034879;28;20025;-81
2021/01/09 13:26:20;;;;;;;13.93;8.90;;;;;;;;;;5036938;28;20030;-81
2021/01/09 13:28:46;;;;;;;19.00;10.00;;;;;;;;;;5021222;28;20099;-81
2021/01/09 13:31:12;;;;;;;18.08;9.15;;;;;;;;;;5039370;28;20045;-81
2021/01/09 13:33:38;;;;;;;16.20;9.93;;;;;;;;;;5019739;28;20024;-81
2021/01/09 13:36:04;;;;;;;15.63;9.30;;;;;;;;;;5040338;28;20041;-81
2021/01/09 13:38:30;;;;;;;14.65;8.88;;;;;;;;;;5039272;28;20037;-85
2021/01/09 13:40:56;;;;;;;14.55;9.02;;;;;;;;;;5019550;28;20128;-81
2021/01/09 13:43:22;;;;;;;14.27;8.68;;;;;;;;;;5020881;28;20596;-80
2021/01/09 13:45:52;;;;;;;15.85;8.70;;;;;;;;;;5039787;28;20081;-81
2021/01/09 13:48:22;;;;;;;15.57;8.52;;;;;;;;;;5022398;28;20048;-81
2021/01/09 13:50:48;;;;;;;14.30;7.65;;;;;;;;;;5018615;28;20397;-80
2021/01/09 13:53:15;;;;;;;14.10;8.32;;;;;;;;;;5022138;28;20030;-82
2021/01/09 13:55:41;;;;;;;13.52;7.65;;;;;;;;;;5040087;28;20788;-80
2021/01/09 13:58:07;;;;;;;15.35;8.93;;;;;;;;;;5037318;28;20034;-80
2021/01/09 14:00:33;;;;;;;13.38;8.35;;;;;;;;;;5021158;28;20040;-81
2021/01/09 14:02:59;;;;;;;11.95;7.40;;;;;;;;;;5038724;28;20037;-81
2021/01/09 14:05:25;;;;;;;13.77;7.88;;;;;;;;;;5021088;28;20083;-80
2021/01/09 14:07:51;;;;;;;15.20;7.93;;;;;;;;;;5021033;28;20124;-81
2021/01/09 14:10:17;;;;;;;13.10;7.18;;;;;;;;;;5038999;28;20029;-80
2021/01/09 14:12:43;;;;;;;12.32;7.05;;;;;;;;;;5038055;28;20026;-81
2021/01/09 14:15:09;;;;;;;13.70;7.82;;;;;;;;;;5019132;28;20033;-81
2021/01/09 14:17:35;;;;;;;12.82;6.80;;;;;;;;;;5015838;28;20030;-80
2021/01/09 14:20:01;;;;;;;13.07;7.40;;;;;;;;;;5025420;28;20432;-81
2021/01/09 14:22:28;;;;;;;12.40;7.25;;;;;;;;;;5027549;28;20033;-81
2021/01/09 14:24:54;;;;;;;10.50;5.60;;;;;;;;;;5040772;28;20119;-81
2021/01/09 14:27:20;;;;;;;11.52;6.38;;;;;;;;;;5038673;28;20029;-80
2021/01/09 14:29:47;;;;;;;14.20;6.53;;;;;;;;;;5038638;28;20026;-81
2021/01/09 14:32:13;;;;;;;9.63;5.75;;;;;;;;;;5039133;28;20030;-80
2021/01/09 14:34:40;;;;;;;13.27;6.65;;;;;;;;;;5037916;28;20032;-81
2021/01/09 14:37:06;;;;;;;14.63;8.52;;;;;;;;;;5020131;28;20382;-81
2021/01/09 14:39:32;;;;;;;12.50;6.60;;;;;;;;;;5037490;28;20442;-80
2021/01/09 14:41:58;;;;;;;10.00;5.80;;;;;;;;;;5019439;28;20474;-81
2021/01/09 14:44:24;;;;;;;8.88;5.50;;;;;;;;;;5017932;28;20103;-80
2021/01/09 14:46:54;;;;;;;12.02;6.63;;;;;;;;;;5037415;28;20029;-80
2021/01/09 14:49:21;;;;;;;11.75;5.90;;;;;;;;;;5019914;28;20058;-81
2021/01/09 14:51:47;;;;;;;14.77;8.95;;;;;;;;;;5032890;28;20017;-81
2021/01/09 14:54:13;;;;;;;11.90;6.47;;;;;;;;;;5038392;28;20025;-81
2021/01/09 14:56:39;;;;;;;11.07;6.32;;;;;;;;;;5030264;28;20021;-81
2021/01/09 14:59:04;;;;;;;11.93;6.40;;;;;;;;;;5045506;28;20112;-81
2021/01/09 15:01:35;;;;;;;9.43;5.93;;;;;;;;;;5042262;28;20041;-81
2021/01/09 15:04:01;;;;;;;10.70;5.95;;;;;;;;;;5043250;28;20532;-81
2021/01/09 15:06:27;;;;;;;11.57;6.70;;;;;;;;;;5043578;28;20030;-81
2021/01/09 15:08:53;;;;;;;9.93;5.75;;;;;;;;;;5043930;28;20029;-82
2021/01/09 15:11:19;;;;;;;12.18;6.88;;;;;;;;;;5024412;28;20127;-81
2021/01/09 15:13:47;;;;;;;10.25;6.05;;;;;;;;;;5043691;28;20017;-81
2021/01/09 15:18:51;;;;;;;8.38;5.25;;;;;;;;;;5100870;28;20405;-81
2021/01/09 15:21:17;;;;;;;10.68;6.53;;;;;;;;;;5090715;28;20021;-81
2021/01/09 15:23:43;;;;;;;9.25;5.05;;;;;;;;;;5089241;28;20024;-81
2021/01/09 15:26:09;;;;;;;10.75;5.40;;;;;;;;;;5093294;28;20050;-80
2021/01/09 15:28:35;;;;;;;9.55;5.55;;;;;;;;;;5081772;28;20108;-80
2021/01/09 15:31:01;;;;;;;9.73;5.47;;;;;;;;;;5085967;28;20468;-82
2021/01/09 15:35:46;;;;;;;9.75;5.93;;;;;;;;;;5157281;27;20665;-82
2021/01/09 15:38:12;;;;;;;13.80;6.65;;;;;;;;;;5148381;27;20031;-81
2021/01/09 15:40:38;;;;;;;10.65;5.75;;;;;;;;;;5145147;27;20028;-81
2021/01/09 15:43:04;;;;;;;12.43;7.22;;;;;;;;;;5140750;28;20027;-82
2021/01/09 15:45:30;;;;;;;10.43;6.35;;;;;;;;;;5137400;28;20020;-82
2021/01/09 15:47:55;;;;;;;8.82;5.72;;;;;;;;;;5142163;27;20028;-81
2021/01/09 15:50:21;;;;;;;10.45;5.85;;;;;;;;;;5136971;28;20118;-81
2021/01/09 15:52:47;;;;;;;9.07;5.30;;;;;;;;;;5138295;28;20027;-81
2021/01/09 15:55:13;;;;;;;11.68;6.63;;;;;;;;;;5140720;27;20034;-82
2021/01/09 15:59:57;;;;;;;7.95;4.72;;;;;;;;;;5104084;28;20379;-82
2021/01/09 16:02:23;;;;;;;8.77;5.47;;;;;;;;;;5104340;28;20032;-81
2021/01/09 16:04:49;;;;;;;10.20;5.43;;;;;;;;;;5088921;28;20056;-81
2021/01/09 16:07:15;;;;;;;8.85;5.07;;;;;;;;;;5097473;28;20020;-80
2021/01/09 16:09:41;;;;;;;10.10;5.95;;;;;;;;;;5086470;28;20522;-80
2021/01/09 16:12:07;;;;;;;10.25;5.38;;;;;;;;;;5097000;28;20081;-81
2021/01/09 16:14:33;;;;;;;7.53;4.55;;;;;;;;;;5099097;28;20028;-81
2021/01/09 16:16:59;;;;;;;9.75;4.57;;;;;;;;;;5102817;28;20036;-81
2021/01/09 16:19:25;;;;;;;10.18;5.15;;;;;;;;;;5095658;28;20053;-81
2021/01/09 16:21:56;;;;;;;9.00;4.95;;;;;;;;;;5091131;28;20033;-81
2021/01/09 16:24:22;;;;;;;9.63;5.45;;;;;;;;;;5084837;28;20020;-81
2021/01/09 16:26:48;;;;;;;7.82;5.00;;;;;;;;;;5086643;28;20044;-81
2021/01/09 16:29:14;;;;;;;7.38;3.85;;;;;;;;;;5090153;28;20082;-81
2021/01/09 16:31:41;;;;;;;8.27;4.90;;;;;;;;;;5094764;28;20899;-81
2021/01/09 16:34:08;;;;;;;7.57;4.32;;;;;;;;;;5102243;28;20397;-81
2021/01/09 16:36:35;;;;;;;8.13;4.32;;;;;;;;;;5103144;28;20024;-81
2021/01/09 16:39:01;;;;;;;8.52;4.50;;;;;;;;;;5102987;28;20039;-81
2021/01/09 16:41:28;;;;;;;8.13;4.80;;;;;;;;;;5103208;28;20020;-81
2021/01/09 16:43:57;;;;;;;8.93;5.10;;;;;;;;;;5102918;28;20083;-81
2021/01/09 16:46:24;;;;;;;8.35;4.90;;;;;;;;;;5090667;28;20484;-81
2021/01/09 16:48:50;;;;;;;9.55;5.15;;;;;;;;;;5108021;28;20036;-81
2021/01/09 16:51:20;;;;;;;7.13;3.88;;;;;;;;;;5092073;28;20036;-81
2021/01/09 16:53:46;;;;;;;6.50;4.15;;;;;;;;;;5090537;28;20024;-81
2021/01/09 16:56:12;;;;;;;9.55;4.10;;;;;;;;;;5096050;28;20048;-81
2021/01/09 16:58:38;;;;;;;8.52;5.05;;;;;;;;;;5096444;28;20028;-81
2021/01/09 17:01:04;;;;;;;8.13;3.88;;;;;;;;;;5091792;28;20108;-81
2021/01/09 17:03:30;;;;;;;9.00;5.03;;;;;;;;;;5092587;28;20027;-81
2021/01/09 17:05:56;;;;;;;7.00;4.15;;;;;;;;;;5099531;28;20052;-80
2021/01/09 17:08:23;;;;;;;9.27;4.80;;;;;;;;;;5098401;28;20403;-81
2021/01/09 17:10:49;;;;;;;11.27;5.65;;;;;;;;;;5091199;28;20032;-82
2021/01/09 17:13:15;;;;;;;7.82;4.28;;;;;;;;;;5094012;28;20045;-81
2021/01/09 17:15:41;;;;;;;15.85;10.13;;;;;;;;;;5087585;28;20016;-83
2021/01/09 17:18:07;;;;;;;11.05;6.97;;;;;;;;;;5095779;28;20053;-83
2021/01/09 17:20:34;;;;;;;9.93;5.78;;;;;;;;;;5088304;28;20027;-82
2021/01/09 17:23:00;;;;;;;10.10;5.45;;;;;;;;;;5093575;28;20024;-82
2021/01/09 17:25:26;;;;;;;7.57;4.75;;;;;;;;;;5093162;28;20024;-82
2021/01/09 17:27:52;;;;;;;8.23;4.70;;;;;;;;;;5081748;28;20040;-84
2021/01/09 17:30:18;;;;;;;7.07;4.00;;;;;;;;;;5082167;28;20053;-84
2021/01/09 17:32:44;;;;;;;7.90;4.43;;;;;;;;;;5089454;28;20082;-83
2021/01/09 17:35:11;;;;;;;9.65;5.47;;;;;;;;;;5072031;28;20029;-84
2021/01/09 17:37:37;;;;;;;9.38;5.68;;;;;;;;;;5079619;28;20055;-84
2021/01/09 17:40:04;;;;;;;10.05;5.50;;;;;;;;;;5085288;28;20404;-84
2021/01/09 17:42:30;;;;;;;11.90;6.13;;;;;;;;;;5075022;28;20024;-84
2021/01/09 17:44:56;;;;;;;9.48;5.40;;;;;;;;;;5070918;28;20032;-84
2021/01/09 17:47:22;;;;;;;15.70;7.53;;;;;;;;;;5075401;28;20025;-82
2021/01/09 17:49:48;;;;;;;11.35;7.25;;;;;;;;;;5074859;28;20033;-83
2021/01/09 18:05:06;;;;;;;11.75;6.82;;;;;;;;;;5073435;28;20045;-83
2021/01/09 18:07:32;;;;;;;11.32;7.85;;;;;;;;;;5056745;28;20536;-83
2021/01/09 18:09:58;;;;;;;11.15;6.88;;;;;;;;;;5076360;28;20028;-83
2021/01/09 18:12:24;;;;;;;11.23;7.95;;;;;;;;;;5049665;28;20028;-83
2021/01/09 18:14:50;;;;;;;11.55;7.28;;;;;;;;;;5061335;28;20029;-83
2021/01/09 18:17:17;;;;;;;10.30;6.45;;;;;;;;;;5066655;28;20024;-84
2021/01/09 18:19:43;;;;;;;11.45;7.07;;;;;;;;;;5044935;28;20182;-83
2021/01/09 18:22:09;;;;;;;10.70;7.35;;;;;;;;;;5055325;28;20501;-83
2021/01/09 18:24:35;;;;;;;11.77;7.60;;;;;;;;;;5059876;28;20155;-84
2021/01/09 18:27:01;;;;;;;13.38;8.00;;;;;;;;;;5050988;28;20115;-85
2021/01/09 18:29:27;;;;;;;13.27;8.02;;;;;;;;;;5042331;28;20140;-85
2021/01/09 18:38:28;;;;;;;10.67;6.63;;;;;;;;;;5050415;28;20047;-83
2021/01/09 18:41:19;;;;;;;13.93;8.00;;;;;;;;;;5054589;28;20259;-84
2021/01/09 18:43:54;;;;;;;12.98;7.32;;;;;;;;;;5067099;28;20041;-85
2021/01/09 18:46:20;;;;;;;12.20;7.03;;;;;;;;;;5075682;28;20047;-86
2021/01/09 18:48:48;;;;;;;11.43;6.82;;;;;;;;;;5073734;28;20024;-83
2021/01/09 18:51:15;;;;;;;11.23;6.80;;;;;;;;;;5073322;28;20097;-84
2021/01/09 18:53:41;;;;;;;13.05;6.85;;;;;;;;;;5063585;28;20028;-84
2021/01/09 18:58:27;;;;;;;9.75;6.18;;;;;;;;;;5110905;27;20416;-85
2021/01/09 19:00:54;;;;;;;14.65;5.85;;;;;;;;;;5111324;28;20028;-80
2021/01/09 19:03:20;;;;;;;20.67;7.00;;;;;;;;;;5111515;28;20047;-82
2021/01/09 19:05:46;;;;;;;10.75;6.10;;;;;;;;;;5113321;28;20020;-80
2021/01/09 19:08:12;;;;;;;11.68;5.22;;;;;;;;;;5111129;28;20073;-81
2021/01/09 19:10:38;;;;;;;9.70;5.10;;;;;;;;;;5116033;28;20027;-81
2021/01/09 19:13:05;;;;;;;7.57;4.80;;;;;;;;;;5111765;28;20698;-80
2021/01/09 19:15:31;;;;;;;7.97;4.65;;;;;;;;;;5099632;28;20028;-80
2021/01/09 19:17:57;;;;;;;8.32;5.57;;;;;;;;;;5102093;28;20034;-80
2021/01/09 19:20:24;;;;;;;10.57;5.85;;;;;;;;;;5112485;28;20024;-79
2021/01/09 19:22:50;;;;;;;12.45;6.50;;;;;;;;;;5113090;28;20023;-79
2021/01/09 19:25:16;;;;;;;9.10;5.60;;;;;;;;;;5103740;28;20070;-79
2021/01/09 19:27:42;;;;;;;9.52;5.43;;;;;;;;;;5099966;28;20100;-81
2021/01/09 19:30:11;;;;;;;10.02;5.57;;;;;;;;;;5103955;27;20020;-80
2021/01/09 19:32:42;;;;;;;9.05;5.13;;;;;;;;;;5105994;28;20039;-80
2021/01/09 19:35:09;;;;;;;10.48;6.18;;;;;;;;;;5100145;28;20025;-81
2021/01/09 19:37:35;;;;;;;9.82;5.28;;;;;;;;;;5104988;28;20028;-80
2021/01/09 19:40:01;;;;;;;8.45;5.45;;;;;;;;;;5101543;28;20495;-81
2021/01/09 19:42:27;;;;;;;8.40;5.28;;;;;;;;;;5104195;28;20114;-81
2021/01/09 19:44:53;;;;;;;7.72;4.68;;;;;;;;;;5105372;28;20440;-81
2021/01/09 19:47:19;;;;;;;12.57;7.45;;;;;;;;;;5100216;28;20033;-81
2021/01/09 19:49:45;;;;;;;14.18;6.43;;;;;;;;;;5106071;28;20384;-81
2021/01/09 19:52:11;;;;;;;8.23;5.32;;;;;;;;;;5103303;28;20541;-80
2021/01/09 19:54:37;;;;;;;7.35;4.35;;;;;;;;;;5098110;28;20025;-81
2021/01/09 19:57:03;;;;;;;7.15;4.10;;;;;;;;;;5105699;28;20032;-80
2021/01/09 19:59:29;;;;;;;7.45;4.53;;;;;;;;;;5113459;28;20031;-81
2021/01/09 20:01:56;;;;;;;7.40;4.28;;;;;;;;;;5104044;28;20426;-81
2021/01/09 20:04:22;;;;;;;6.63;3.90;;;;;;;;;;5113191;28;20643;-81
2021/01/09 20:06:49;;;;;;;6.47;3.78;;;;;;;;;;5117493;28;20375;-81
2021/01/09 20:09:15;;;;;;;5.70;3.50;;;;;;;;;;5103414;28;20023;-81
2021/01/09 20:11:42;;;;;;;7.72;4.30;;;;;;;;;;5100375;28;20043;-81
2021/01/09 20:14:08;;;;;;;7.38;4.43;;;;;;;;;;5091279;28;20024;-81
2021/01/09 20:16:34;;;;;;;7.97;4.35;;;;;;;;;;5098466;28;20038;-80
2021/01/09 20:19:00;;;;;;;8.35;4.55;;;;;;;;;;5101713;28;20024;-80
2021/01/09 20:21:27;;;;;;;9.40;5.40;;;;;;;;;;5093731;28;20038;-81
2021/01/09 20:23:55;;;;;;;10.07;5.13;;;;;;;;;;5083841;28;20025;-81
2021/01/09 20:26:21;;;;;;;9.18;4.45;;;;;;;;;;5095458;28;20030;-80
2021/01/09 20:28:47;;;;;;;8.45;4.68;;;;;;;;;;5099073;28;20115;-81
2021/01/09 20:31:15;;;;;;;9.63;6.00;;;;;;;;;;5099154;28;20534;-80
2021/01/09 20:33:41;;;;;;;7.10;4.20;;;;;;;;;;5091373;28;20024;-81
2021/01/09 20:36:07;;;;;;;7.13;4.13;;;;;;;;;;5096818;28;20056;-80
2021/01/09 20:38:33;;;;;;;7.55;4.35;;;;;;;;;;5095706;28;20024;-80
2021/01/09 20:40:59;;;;;;;6.57;4.30;;;;;;;;;;5092774;28;20042;-80
2021/01/09 20:43:25;;;;;;;6.78;4.13;;;;;;;;;;5090228;28;20039;-80
2021/01/09 20:45:51;;;;;;;12.85;4.82;;;;;;;;;;5081029;28;20412;-80
2021/01/09 20:48:17;;;;;;;7.13;4.50;;;;;;;;;;5089799;28;20107;-80
2021/01/09 20:50:43;;;;;;;6.10;3.35;;;;;;;;;;5096736;28;20036;-80